createdAt,value
2023-04-27T00:00:23.297Z,242.39
2023-04-27T00:01:23.304Z,242.39
2023-04-27T00:02:23.402Z,242.34
2023-04-27T00:03:23.525Z,242.40
2023-04-27T00:04:23.577Z,242.52
2023-04-27T00:05:23.455Z,242.26
2023-04-27T00:06:23.402Z,242.27
2023-04-27T00:07:23.341Z,242.16
2023-04-27T00:08:23.370Z,242.67
2023-04-27T00:09:23.372Z,241.93
2023-04-27T00:10:23.366Z,242.27
2023-04-27T00:11:23.371Z,242.19
2023-04-27T00:12:23.383Z,242.31
2023-04-27T00:13:23.405Z,242.26
2023-04-27T00:14:23.417Z,242.26
2023-04-27T00:15:23.423Z,242.46
2023-04-27T00:16:23.442Z,242.52
2023-04-27T00:17:23.451Z,242.19
2023-04-27T00:18:23.425Z,242.42
2023-04-27T00:19:23.447Z,242.43
2023-04-27T00:20:23.461Z,242.49
2023-04-27T00:21:23.471Z,242.02
2023-04-27T00:22:23.471Z,242.20
2023-04-27T00:23:23.474Z,242.10
2023-04-27T00:24:23.492Z,242.12
2023-04-27T00:25:23.504Z,242.15
2023-04-27T00:26:23.510Z,242.20
2023-04-27T00:27:23.552Z,242.18
2023-04-27T00:28:23.566Z,242.35
2023-04-27T00:29:23.558Z,242.19
2023-04-27T00:30:23.552Z,242.39
2023-04-27T00:31:23.591Z,242.31
2023-04-27T00:32:23.639Z,242.19
2023-04-27T00:33:23.577Z,242.29
2023-04-27T00:34:23.581Z,242.14
2023-04-27T00:35:23.600Z,242.18
2023-04-27T00:36:23.615Z,242.33
2023-04-27T00:37:23.619Z,242.42
2023-04-27T00:38:23.622Z,241.94
2023-04-27T00:39:23.635Z,242.21
2023-04-27T00:40:23.635Z,242.00
2023-04-27T00:41:23.660Z,242.02
2023-04-27T00:42:23.663Z,241.97
2023-04-27T00:43:23.674Z,242.05
2023-04-27T00:44:23.675Z,241.82
2023-04-27T00:45:23.706Z,242.06
2023-04-27T00:46:23.722Z,242.18
2023-04-27T00:47:23.731Z,242.10
2023-04-27T00:48:23.711Z,241.94
2023-04-27T00:49:23.742Z,242.23
2023-04-27T00:50:23.759Z,242.05
2023-04-27T00:51:23.759Z,241.88
2023-04-27T00:52:23.768Z,242.08
2023-04-27T00:53:23.780Z,241.80
2023-04-27T00:54:23.790Z,241.59
2023-04-27T00:55:23.826Z,242.23
2023-04-27T00:56:23.800Z,242.41
2023-04-27T00:57:23.818Z,241.77
2023-04-27T00:58:23.836Z,242.63
2023-04-27T00:59:23.840Z,242.16
2023-04-27T01:00:23.855Z,242.02
2023-04-27T01:01:23.959Z,242.30
2023-04-27T01:02:23.980Z,242.31
2023-04-27T01:03:24.144Z,242.31
2023-04-27T01:04:23.999Z,242.08
2023-04-27T01:05:23.889Z,242.10
2023-04-27T01:06:23.890Z,242.25
2023-04-27T01:07:23.913Z,241.96
2023-04-27T01:08:23.902Z,241.86
2023-04-27T01:09:23.925Z,241.91
2023-04-27T01:10:23.939Z,242.36
2023-04-27T01:11:23.928Z,241.82
2023-04-27T01:12:23.934Z,241.89
2023-04-27T01:13:23.948Z,241.73
2023-04-27T01:14:23.964Z,242.25
2023-04-27T01:15:23.968Z,241.71
2023-04-27T01:16:24.012Z,241.81
2023-04-27T01:17:24.012Z,241.89
2023-04-27T01:18:23.990Z,242.19
2023-04-27T01:19:24.017Z,241.60
2023-04-27T01:20:24.004Z,241.77
2023-04-27T01:21:24.044Z,241.50
2023-04-27T01:22:24.017Z,241.55
2023-04-27T01:23:24.041Z,241.62
2023-04-27T01:24:24.036Z,241.53
2023-04-27T01:25:24.034Z,241.68
2023-04-27T01:26:24.036Z,241.72
2023-04-27T01:27:24.055Z,242.08
2023-04-27T01:28:24.052Z,242.28
2023-04-27T01:29:24.053Z,241.48
2023-04-27T01:30:24.058Z,241.39
2023-04-27T01:31:24.149Z,241.78
2023-04-27T01:32:24.142Z,242.03
2023-04-27T01:33:24.096Z,241.78
2023-04-27T01:34:24.097Z,242.40
2023-04-27T01:35:25.660Z,242.05
2023-04-27T01:36:24.134Z,242.23
2023-04-27T01:37:24.134Z,242.19
2023-04-27T01:38:24.153Z,242.21
2023-04-27T01:39:24.140Z,241.53
2023-04-27T01:40:24.160Z,241.51
2023-04-27T01:41:24.164Z,241.62
2023-04-27T01:42:24.158Z,241.63
2023-04-27T01:43:24.164Z,242.03
2023-04-27T01:44:24.179Z,241.16
2023-04-27T01:45:24.198Z,241.83
2023-04-27T01:46:24.220Z,241.59
2023-04-27T01:47:24.231Z,241.13
2023-04-27T01:48:24.228Z,241.58
2023-04-27T01:49:24.232Z,241.73
2023-04-27T01:50:24.241Z,241.46
2023-04-27T01:51:24.249Z,241.75
2023-04-27T01:52:24.267Z,241.63
2023-04-27T01:53:24.251Z,241.44
2023-04-27T01:54:25.554Z,241.34
2023-04-27T01:55:24.295Z,241.35
2023-04-27T01:56:24.285Z,241.47
2023-04-27T01:57:24.308Z,241.53
2023-04-27T01:58:24.313Z,241.67
2023-04-27T01:59:24.325Z,241.59
2023-04-27T02:00:24.332Z,241.86
2023-04-27T02:01:24.360Z,241.39
2023-04-27T02:02:24.488Z,241.38
2023-04-27T02:03:24.578Z,241.29
2023-04-27T02:04:24.517Z,241.79
2023-04-27T02:05:24.405Z,241.61
2023-04-27T02:06:24.391Z,241.55
2023-04-27T02:07:24.401Z,241.24
2023-04-27T02:08:24.401Z,241.72
2023-04-27T02:09:24.406Z,241.32
2023-04-27T02:10:24.433Z,241.49
2023-04-27T02:11:24.433Z,241.60
2023-04-27T02:12:24.480Z,241.11
2023-04-27T02:13:24.470Z,241.28
2023-04-27T02:14:24.460Z,241.78
2023-04-27T02:15:24.785Z,241.39
2023-04-27T02:16:24.531Z,241.55
2023-04-27T02:17:24.601Z,241.55
2023-04-27T02:18:24.478Z,241.48
2023-04-27T02:19:24.493Z,241.24
2023-04-27T02:20:24.502Z,240.97
2023-04-27T02:21:24.492Z,241.51
2023-04-27T02:22:24.493Z,241.10
2023-04-27T02:23:24.498Z,241.26
2023-04-27T02:24:24.497Z,241.28
2023-04-27T02:25:24.511Z,241.30
2023-04-27T02:26:24.514Z,241.31
2023-04-27T02:27:24.530Z,241.38
2023-04-27T02:28:24.526Z,241.59
2023-04-27T02:29:24.533Z,241.35
2023-04-27T02:30:24.545Z,241.58
2023-04-27T02:31:24.595Z,241.42
2023-04-27T02:32:24.586Z,241.07
2023-04-27T02:33:24.558Z,241.64
2023-04-27T02:34:24.573Z,241.34
2023-04-27T02:35:24.598Z,241.75
2023-04-27T02:36:24.580Z,240.92
2023-04-27T02:37:24.608Z,239.45
2023-04-27T02:38:24.586Z,238.11
2023-04-27T02:39:24.596Z,237.24
2023-04-27T02:40:24.613Z,236.21
2023-04-27T02:41:24.638Z,233.68
2023-04-27T02:42:24.637Z,230.80
2023-04-27T02:43:24.649Z,228.12
2023-04-27T02:44:24.622Z,225.59
2023-04-27T02:45:24.669Z,223.53
2023-04-27T02:46:24.662Z,219.13
2023-04-27T02:47:24.741Z,215.28
2023-04-27T02:48:24.837Z,213.16
2023-04-27T02:49:24.688Z,209.75
2023-04-27T02:50:24.773Z,205.54
2023-04-27T02:51:24.762Z,203.29
2023-04-27T02:52:24.718Z,200.89
2023-04-27T02:53:24.732Z,197.99
2023-04-27T02:54:24.738Z,194.73
2023-04-27T02:55:24.766Z,192.21
2023-04-27T02:56:24.794Z,189.12
2023-04-27T02:57:24.853Z,186.76
2023-04-27T02:58:24.896Z,184.50
2023-04-27T02:59:24.983Z,181.90
2023-04-27T03:00:25.020Z,179.68
2023-04-27T03:01:25.084Z,179.07
2023-04-27T03:02:25.214Z,177.85
2023-04-27T03:03:25.325Z,176.41
2023-04-27T03:04:25.376Z,174.90
2023-04-27T03:05:25.337Z,173.82
2023-04-27T03:06:25.390Z,172.65
2023-04-27T03:07:25.464Z,171.51
2023-04-27T03:08:25.541Z,168.25
2023-04-27T03:09:25.617Z,167.45
2023-04-27T03:10:25.690Z,165.74
2023-04-27T03:11:25.756Z,163.69
2023-04-27T03:12:25.855Z,162.07
2023-04-27T03:13:25.930Z,160.47
2023-04-27T03:14:25.996Z,159.00
2023-04-27T03:15:26.097Z,156.60
2023-04-27T03:16:26.226Z,154.67
2023-04-27T03:17:26.287Z,152.71
2023-04-27T03:18:26.328Z,151.29
2023-04-27T03:19:26.397Z,149.44
2023-04-27T03:20:26.483Z,147.22
2023-04-27T03:21:26.577Z,146.64
2023-04-27T03:22:26.652Z,145.14
2023-04-27T03:23:26.759Z,143.61
2023-04-27T03:24:26.832Z,142.26
2023-04-27T03:25:26.924Z,142.90
2023-04-27T03:26:26.991Z,142.06
2023-04-27T03:27:27.088Z,142.13
2023-04-27T03:28:27.174Z,141.26
2023-04-27T03:29:27.285Z,141.19
2023-04-27T03:30:27.337Z,141.35
2023-04-27T03:31:27.432Z,141.54
2023-04-27T03:32:27.521Z,140.94
2023-04-27T03:33:27.595Z,140.26
2023-04-27T03:34:27.681Z,139.96
2023-04-27T03:35:27.783Z,138.33
2023-04-27T03:36:27.869Z,136.91
2023-04-27T03:37:27.975Z,136.24
2023-04-27T03:38:28.075Z,136.70
2023-04-27T03:39:28.153Z,135.84
2023-04-27T03:40:28.243Z,134.16
2023-04-27T03:41:28.334Z,133.57
2023-04-27T03:42:28.426Z,133.03
2023-04-27T03:43:28.520Z,131.15
2023-04-27T03:44:28.624Z,130.52
2023-04-27T03:45:28.733Z,131.08
2023-04-27T03:46:29.006Z,130.50
2023-04-27T03:47:28.960Z,129.90
2023-04-27T03:48:28.973Z,129.74
2023-04-27T03:49:29.066Z,130.07
2023-04-27T03:50:30.167Z,128.45
2023-04-27T03:51:29.283Z,128.14
2023-04-27T03:52:29.298Z,128.16
2023-04-27T03:53:29.305Z,128.17
2023-04-27T03:54:29.325Z,128.19
2023-04-27T03:55:29.356Z,128.25
2023-04-27T03:56:29.349Z,128.16
2023-04-27T03:57:29.394Z,127.24
2023-04-27T03:58:29.395Z,125.08
2023-04-27T03:59:29.428Z,123.84
2023-04-27T04:00:29.466Z,123.17
2023-04-27T04:01:29.467Z,123.29
2023-04-27T04:02:29.642Z,121.92
2023-04-27T04:03:29.719Z,121.77
2023-04-27T04:04:29.744Z,121.50
2023-04-27T04:05:29.660Z,120.95
2023-04-27T04:06:29.743Z,120.55
2023-04-27T04:07:29.805Z,121.13
2023-04-27T04:08:29.888Z,123.53
2023-04-27T04:09:29.960Z,123.59
2023-04-27T04:10:30.048Z,124.80
2023-04-27T04:11:30.127Z,125.71
2023-04-27T04:12:30.220Z,127.06
2023-04-27T04:13:30.299Z,127.77
2023-04-27T04:14:30.409Z,128.20
2023-04-27T04:15:30.535Z,128.82
2023-04-27T04:16:30.656Z,129.09
2023-04-27T04:17:30.717Z,129.11
2023-04-27T04:18:30.774Z,128.73
2023-04-27T04:19:30.855Z,128.54
2023-04-27T04:20:31.324Z,129.16
2023-04-27T04:21:31.055Z,130.34
2023-04-27T04:22:31.141Z,129.80
2023-04-27T04:23:31.191Z,128.79
2023-04-27T04:24:31.265Z,127.57
2023-04-27T04:25:31.331Z,127.35
2023-04-27T04:26:31.400Z,127.32
2023-04-27T04:27:31.459Z,125.99
2023-04-27T04:28:31.498Z,126.03
2023-04-27T04:29:31.516Z,126.13
2023-04-27T04:30:31.544Z,126.84
2023-04-27T04:31:31.579Z,126.11
2023-04-27T04:32:31.743Z,126.59
2023-04-27T04:33:31.593Z,127.57
2023-04-27T04:34:31.646Z,126.17
2023-04-27T04:35:31.653Z,126.83
2023-04-27T04:36:31.705Z,127.86
2023-04-27T04:37:31.708Z,128.06
2023-04-27T04:38:31.723Z,128.36
2023-04-27T04:39:31.728Z,127.31
2023-04-27T04:40:31.748Z,125.32
2023-04-27T04:41:31.842Z,125.35
2023-04-27T04:42:31.794Z,125.94
2023-04-27T04:43:31.832Z,126.83
2023-04-27T04:44:31.852Z,126.03
2023-04-27T04:45:31.888Z,125.31
2023-04-27T04:46:31.901Z,127.19
2023-04-27T04:47:31.947Z,126.04
2023-04-27T04:48:31.953Z,127.30
2023-04-27T04:49:32.000Z,126.92
2023-04-27T04:50:31.982Z,127.95
2023-04-27T04:51:32.024Z,128.01
2023-04-27T04:52:32.041Z,128.46
2023-04-27T04:53:32.074Z,129.36
2023-04-27T04:54:32.074Z,130.80
2023-04-27T04:55:32.114Z,133.39
2023-04-27T04:56:32.142Z,133.25
2023-04-27T04:57:32.161Z,134.14
2023-04-27T04:58:32.171Z,133.90
2023-04-27T04:59:32.197Z,135.10
2023-04-27T05:00:32.240Z,134.23
2023-04-27T05:01:32.262Z,134.62
2023-04-27T05:02:32.379Z,135.74
2023-04-27T05:03:32.387Z,138.82
2023-04-27T05:04:32.575Z,139.50
2023-04-27T05:05:32.425Z,140.68
2023-04-27T05:06:32.505Z,142.07
2023-04-27T05:07:32.515Z,142.12
2023-04-27T05:08:32.521Z,142.42
2023-04-27T05:09:32.559Z,143.59
2023-04-27T05:10:32.590Z,147.41
2023-04-27T05:11:32.600Z,153.51
2023-04-27T05:12:32.625Z,156.04
2023-04-27T05:13:32.679Z,157.48
2023-04-27T05:14:32.699Z,157.07
2023-04-27T05:15:32.724Z,157.73
2023-04-27T05:16:32.756Z,155.90
2023-04-27T05:17:32.874Z,156.91
2023-04-27T05:18:32.910Z,157.88
2023-04-27T05:19:33.006Z,158.66
2023-04-27T05:20:33.096Z,159.11
2023-04-27T05:21:33.148Z,159.89
2023-04-27T05:22:33.221Z,159.97
2023-04-27T05:23:33.255Z,162.63
2023-04-27T05:24:33.309Z,164.24
2023-04-27T05:25:33.360Z,165.56
2023-04-27T05:26:33.391Z,166.10
2023-04-27T05:27:33.472Z,166.58
2023-04-27T05:28:33.495Z,168.49
2023-04-27T05:29:33.605Z,168.01
2023-04-27T05:30:33.700Z,169.82
2023-04-27T05:31:33.762Z,170.74
2023-04-27T05:32:33.865Z,170.99
2023-04-27T05:33:33.904Z,171.71
2023-04-27T05:34:33.908Z,171.63
2023-04-27T05:35:33.971Z,171.76
2023-04-27T05:36:34.093Z,172.31
2023-04-27T05:37:34.127Z,172.49
2023-04-27T05:38:34.225Z,171.58
2023-04-27T05:39:34.375Z,172.30
2023-04-27T05:40:34.427Z,172.02
2023-04-27T05:41:34.628Z,173.89
2023-04-27T05:42:34.602Z,173.40
2023-04-27T05:43:34.688Z,174.89
2023-04-27T05:44:34.802Z,175.45
2023-04-27T05:45:34.882Z,175.61
2023-04-27T05:46:37.893Z,175.68
2023-04-27T05:47:35.854Z,174.96
2023-04-27T05:48:35.024Z,174.86
2023-04-27T05:49:35.065Z,174.67
2023-04-27T05:50:35.137Z,174.01
2023-04-27T05:51:35.150Z,173.44
2023-04-27T05:52:37.641Z,174.14
2023-04-27T05:53:35.128Z,174.17
2023-04-27T05:54:35.861Z,173.85
2023-04-27T05:55:37.372Z,174.18
2023-04-27T05:56:35.467Z,173.81
2023-04-27T05:57:35.555Z,174.08
2023-04-27T05:58:35.652Z,173.65
2023-04-27T05:59:35.694Z,174.24
2023-04-27T06:00:35.847Z,175.28
2023-04-27T06:01:35.802Z,175.31
2023-04-27T06:02:35.889Z,175.58
2023-04-27T06:03:36.016Z,176.09
2023-04-27T06:04:35.986Z,177.18
2023-04-27T06:05:35.896Z,178.50
2023-04-27T06:06:35.886Z,179.20
2023-04-27T06:07:35.936Z,179.24
2023-04-27T06:08:35.912Z,179.39
2023-04-27T06:09:35.960Z,180.38
2023-04-27T06:10:39.754Z,181.42
2023-04-27T06:11:36.230Z,179.35
2023-04-27T06:12:36.026Z,179.98
2023-04-27T06:13:36.058Z,179.39
2023-04-27T06:14:36.098Z,180.06
2023-04-27T06:15:36.132Z,181.28
2023-04-27T06:16:36.140Z,183.18
2023-04-27T06:17:36.178Z,185.56
2023-04-27T06:18:36.201Z,185.74
2023-04-27T06:19:36.171Z,186.66
2023-04-27T06:20:36.207Z,186.71
2023-04-27T06:21:36.274Z,186.98
2023-04-27T06:22:36.248Z,188.14
2023-04-27T06:23:36.297Z,192.52
2023-04-27T06:24:36.312Z,197.91
2023-04-27T06:25:36.320Z,199.04
2023-04-27T06:26:36.358Z,200.58
2023-04-27T06:27:36.374Z,201.95
2023-04-27T06:28:36.423Z,203.43
2023-04-27T06:29:36.421Z,205.03
2023-04-27T06:30:37.638Z,205.61
2023-04-27T06:31:36.506Z,206.90
2023-04-27T06:32:36.478Z,208.93
2023-04-27T06:33:36.569Z,209.33
2023-04-27T06:34:36.514Z,210.62
2023-04-27T06:35:36.615Z,211.78
2023-04-27T06:36:36.544Z,212.10
2023-04-27T06:37:36.574Z,213.59
2023-04-27T06:38:36.571Z,213.32
2023-04-27T06:39:36.622Z,214.10
2023-04-27T06:40:36.654Z,214.31
2023-04-27T06:41:36.616Z,215.43
2023-04-27T06:42:36.617Z,215.52
2023-04-27T06:43:36.621Z,215.74
2023-04-27T06:44:36.620Z,216.10
2023-04-27T06:45:36.660Z,217.18
2023-04-27T06:46:37.544Z,218.19
2023-04-27T06:47:36.657Z,219.12
2023-04-27T06:48:36.659Z,220.05
2023-04-27T06:49:36.781Z,220.21
2023-04-27T06:50:36.667Z,220.16
2023-04-27T06:51:36.661Z,221.02
2023-04-27T06:52:36.716Z,218.21
2023-04-27T06:53:36.701Z,215.21
2023-04-27T06:54:36.767Z,211.29
2023-04-27T06:55:36.706Z,205.56
2023-04-27T06:56:36.716Z,199.52
2023-04-27T06:57:36.883Z,195.14
2023-04-27T06:58:36.775Z,190.31
2023-04-27T06:59:36.808Z,185.49
2023-04-27T07:00:36.807Z,181.70
2023-04-27T07:01:36.841Z,176.71
2023-04-27T07:02:36.955Z,173.18
2023-04-27T07:03:37.217Z,169.33
2023-04-27T07:04:36.902Z,167.79
2023-04-27T07:05:36.886Z,164.86
2023-04-27T07:06:36.892Z,161.57
2023-04-27T07:07:36.908Z,158.20
2023-04-27T07:08:36.969Z,155.97
2023-04-27T07:09:37.891Z,152.20
2023-04-27T07:10:36.963Z,149.31
2023-04-27T07:11:37.007Z,146.86
2023-04-27T07:12:37.077Z,144.06
2023-04-27T07:13:37.139Z,141.31
2023-04-27T07:14:37.163Z,139.97
2023-04-27T07:15:37.184Z,137.33
2023-04-27T07:16:37.272Z,134.54
2023-04-27T07:17:37.206Z,132.90
2023-04-27T07:18:37.238Z,130.97
2023-04-27T07:19:37.233Z,129.90
2023-04-27T07:20:37.253Z,128.15
2023-04-27T07:21:37.218Z,124.40
2023-04-27T07:22:37.224Z,122.61
2023-04-27T07:23:37.236Z,120.87
2023-04-27T07:24:37.875Z,119.59
2023-04-27T07:25:37.272Z,117.58
2023-04-27T07:26:37.292Z,116.16
2023-04-27T07:27:37.873Z,114.84
2023-04-27T07:28:37.879Z,114.59
2023-04-27T07:29:38.397Z,113.77
2023-04-27T07:30:37.413Z,111.74
2023-04-27T07:31:37.533Z,111.85
2023-04-27T07:32:37.519Z,109.58
2023-04-27T07:33:37.551Z,108.80
2023-04-27T07:34:49.161Z,107.35
2023-04-27T07:35:38.592Z,107.29
2023-04-27T07:36:37.536Z,106.28
2023-04-27T07:37:37.548Z,103.63
2023-04-27T07:38:37.553Z,103.23
2023-04-27T07:39:37.520Z,103.27
2023-04-27T07:40:37.618Z,102.51
2023-04-27T07:41:37.553Z,103.05
2023-04-27T07:42:37.567Z,102.67
2023-04-27T07:43:37.572Z,101.88
2023-04-27T07:44:37.568Z,102.23
2023-04-27T07:45:37.637Z,103.21
2023-04-27T07:46:37.605Z,103.09
2023-04-27T07:47:37.634Z,103.83
2023-04-27T07:48:37.613Z,106.05
2023-04-27T07:49:37.723Z,107.20
2023-04-27T07:50:37.605Z,106.60
2023-04-27T07:51:37.607Z,104.80
2023-04-27T07:52:37.618Z,106.16
2023-04-27T07:53:37.618Z,104.89
2023-04-27T07:54:37.668Z,104.52
2023-04-27T07:55:37.644Z,100.43
2023-04-27T07:56:37.926Z,98.47
2023-04-27T07:57:37.653Z,95.53
2023-04-27T07:58:37.696Z,95.37
2023-04-27T07:59:37.670Z,94.10
2023-04-27T08:00:37.679Z,92.17
2023-04-27T08:01:37.708Z,92.75
2023-04-27T08:02:37.865Z,91.81
2023-04-27T08:03:37.902Z,90.37
2023-04-27T08:04:38.083Z,91.29
2023-04-27T08:05:38.697Z,89.88
2023-04-27T08:06:39.142Z,88.72
2023-04-27T08:07:44.192Z,85.74
2023-04-27T08:08:38.941Z,82.67
2023-04-27T08:09:38.019Z,80.89
2023-04-27T08:10:38.064Z,77.98
2023-04-27T08:11:38.120Z,76.66
2023-04-27T08:12:38.188Z,76.09
2023-04-27T08:13:38.252Z,74.09
2023-04-27T08:14:38.328Z,71.13
2023-04-27T08:15:38.825Z,70.47
2023-04-27T08:16:38.619Z,69.78
2023-04-27T08:17:38.595Z,69.10
2023-04-27T08:18:38.626Z,67.46
2023-04-27T08:19:38.686Z,66.78
2023-04-27T08:20:38.781Z,65.27
2023-04-27T08:21:39.048Z,62.34
2023-04-27T08:22:38.817Z,59.88
2023-04-27T08:23:38.813Z,58.24
2023-04-27T08:24:38.833Z,58.05
2023-04-27T08:25:38.859Z,57.60
2023-04-27T08:26:38.856Z,56.07
2023-04-27T08:27:38.859Z,53.84
2023-04-27T08:28:38.861Z,52.84
2023-04-27T08:29:38.856Z,51.56
2023-04-27T08:30:39.411Z,51.00
2023-04-27T08:31:38.961Z,49.89
2023-04-27T08:32:39.088Z,49.51
2023-04-27T08:33:39.037Z,50.40
2023-04-27T08:34:39.077Z,49.99
2023-04-27T08:35:39.156Z,49.16
2023-04-27T08:36:39.222Z,47.80
2023-04-27T08:37:39.270Z,47.65
2023-04-27T08:38:39.433Z,47.26
2023-04-27T08:39:39.422Z,49.51
2023-04-27T08:40:39.478Z,49.10
2023-04-27T08:41:39.606Z,53.30
2023-04-27T08:42:39.606Z,57.97
2023-04-27T08:43:39.708Z,60.68
2023-04-27T08:44:39.806Z,64.31
2023-04-27T08:45:39.824Z,66.93
2023-04-27T08:46:39.923Z,69.19
2023-04-27T08:47:43.458Z,72.56
2023-04-27T08:48:39.916Z,72.60
2023-04-27T08:49:40.013Z,73.15
2023-04-27T08:50:39.927Z,74.48
2023-04-27T08:51:40.204Z,77.66
2023-04-27T08:52:39.928Z,82.57
2023-04-27T08:53:39.931Z,86.78
2023-04-27T08:54:39.930Z,88.30
2023-04-27T08:55:39.938Z,90.74
2023-04-27T08:56:39.953Z,93.06
2023-04-27T08:57:40.142Z,94.18
2023-04-27T08:58:39.975Z,97.94
2023-04-27T08:59:39.940Z,99.79
2023-04-27T09:00:39.954Z,102.65
2023-04-27T09:01:40.002Z,104.39
2023-04-27T09:02:40.062Z,106.90
2023-04-27T09:03:40.112Z,109.11
2023-04-27T09:04:40.128Z,108.86
2023-04-27T09:05:46.653Z,111.26
2023-04-27T09:06:40.967Z,111.42
2023-04-27T09:07:39.934Z,112.38
2023-04-27T09:08:39.955Z,114.66
2023-04-27T09:09:39.948Z,118.78
2023-04-27T09:10:39.936Z,125.43
2023-04-27T09:11:39.991Z,127.28
2023-04-27T09:12:39.909Z,130.96
2023-04-27T09:13:39.902Z,133.28
2023-04-27T09:14:39.909Z,133.34
2023-04-27T09:15:39.909Z,134.06
2023-04-27T09:16:40.010Z,135.34
2023-04-27T09:17:39.934Z,138.08
2023-04-27T09:18:39.919Z,144.01
2023-04-27T09:19:39.903Z,145.68
2023-04-27T09:20:39.881Z,149.33
2023-04-27T09:21:39.885Z,150.69
2023-04-27T09:22:39.902Z,151.35
2023-04-27T09:23:39.927Z,155.00
2023-04-27T09:24:39.877Z,157.49
2023-04-27T09:25:39.889Z,158.49
2023-04-27T09:26:39.868Z,159.41
2023-04-27T09:27:39.921Z,161.21
2023-04-27T09:28:39.974Z,158.32
2023-04-27T09:29:40.000Z,162.85
2023-04-27T09:30:40.058Z,165.79
2023-04-27T09:31:40.158Z,168.46
2023-04-27T09:32:40.174Z,169.25
2023-04-27T09:33:40.172Z,169.79
2023-04-27T09:34:40.217Z,172.62
2023-04-27T09:35:40.244Z,174.13
2023-04-27T09:36:40.274Z,175.71
2023-04-27T09:37:40.337Z,178.29
2023-04-27T09:38:40.354Z,179.18
2023-04-27T09:39:40.425Z,182.38
2023-04-27T09:40:40.446Z,182.57
2023-04-27T09:41:40.494Z,184.45
2023-04-27T09:42:40.489Z,187.49
2023-04-27T09:43:40.532Z,187.46
2023-04-27T09:44:40.577Z,189.95
2023-04-27T09:45:40.714Z,190.93
2023-04-27T09:46:40.659Z,190.52
2023-04-27T09:47:40.747Z,192.58
2023-04-27T09:48:40.743Z,193.25
2023-04-27T09:49:40.747Z,193.18
2023-04-27T09:50:40.786Z,193.27
2023-04-27T09:51:40.749Z,193.69
2023-04-27T09:52:40.753Z,194.89
2023-04-27T09:53:40.736Z,197.33
2023-04-27T09:54:41.433Z,200.01
2023-04-27T09:55:40.725Z,201.92
2023-04-27T09:56:40.747Z,202.21
2023-04-27T09:57:40.722Z,203.28
2023-04-27T09:58:40.727Z,204.77
2023-04-27T09:59:40.723Z,206.59
2023-04-27T10:00:40.699Z,204.92
2023-04-27T10:01:40.830Z,206.90
2023-04-27T10:02:52.218Z,207.49
2023-04-27T10:03:41.747Z,207.60
2023-04-27T10:04:40.790Z,208.05
2023-04-27T10:05:40.668Z,208.75
2023-04-27T10:06:40.671Z,209.36
2023-04-27T10:07:40.671Z,212.27
2023-04-27T10:08:40.643Z,212.77
2023-04-27T10:09:40.648Z,213.21
2023-04-27T10:10:40.643Z,213.18
2023-04-27T10:11:40.973Z,215.14
2023-04-27T10:12:40.614Z,216.83
2023-04-27T10:13:40.597Z,216.82
2023-04-27T10:14:40.610Z,215.78
2023-04-27T10:15:40.622Z,219.48
2023-04-27T10:16:40.618Z,220.39
2023-04-27T10:17:40.671Z,219.38
2023-04-27T10:18:40.579Z,221.10
2023-04-27T10:19:40.632Z,220.61
2023-04-27T10:20:40.657Z,221.80
2023-04-27T10:21:40.692Z,224.40
2023-04-27T10:22:40.756Z,224.39
2023-04-27T10:23:40.784Z,224.18
2023-04-27T10:24:40.839Z,224.37
2023-04-27T10:25:40.966Z,225.21
2023-04-27T10:26:40.873Z,225.98
2023-04-27T10:27:40.873Z,226.89
2023-04-27T10:28:40.959Z,226.43
2023-04-27T10:29:40.988Z,228.01
2023-04-27T10:30:41.017Z,229.73
2023-04-27T10:31:41.079Z,229.94
2023-04-27T10:32:41.106Z,230.75
2023-04-27T10:33:41.076Z,231.42
2023-04-27T10:34:41.162Z,229.39
2023-04-27T10:35:41.249Z,231.26
2023-04-27T10:36:41.294Z,232.23
2023-04-27T10:37:41.210Z,232.81
2023-04-27T10:38:41.244Z,232.99
2023-04-27T10:39:48.556Z,233.67
2023-04-27T10:40:42.257Z,233.76
2023-04-27T10:41:41.265Z,233.97
2023-04-27T10:42:41.267Z,234.31
2023-04-27T10:43:41.281Z,234.85
2023-04-27T10:44:41.240Z,236.13
2023-04-27T10:45:41.252Z,236.64
2023-04-27T10:46:41.499Z,237.06
2023-04-27T10:47:41.316Z,237.44
2023-04-27T10:48:41.239Z,238.52
2023-04-27T10:49:41.245Z,239.07
2023-04-27T10:50:41.215Z,238.13
2023-04-27T10:51:41.265Z,237.82
2023-04-27T10:52:41.225Z,238.74
2023-04-27T10:53:41.201Z,238.49
2023-04-27T10:54:41.237Z,238.33
2023-04-27T10:55:41.206Z,238.76
2023-04-27T10:56:41.191Z,239.41
2023-04-27T10:57:41.188Z,241.18
2023-04-27T10:58:49.036Z,238.68
2023-04-27T10:59:42.181Z,238.77
2023-04-27T11:00:41.171Z,239.07
2023-04-27T11:01:41.559Z,240.14
2023-04-27T11:02:41.285Z,240.45
2023-04-27T11:03:41.319Z,241.03
2023-04-27T11:04:41.203Z,241.92
2023-04-27T11:05:41.125Z,243.28
2023-04-27T11:06:41.166Z,243.30
2023-04-27T11:07:41.145Z,242.97
2023-04-27T11:08:41.103Z,243.67
2023-04-27T11:09:41.127Z,243.38
2023-04-27T11:10:41.107Z,243.57
2023-04-27T11:11:41.146Z,243.63
2023-04-27T11:12:41.094Z,244.81
2023-04-27T11:13:41.062Z,244.68
2023-04-27T11:14:41.973Z,246.15
2023-04-27T11:15:42.014Z,245.82
2023-04-27T11:16:41.104Z,246.26
2023-04-27T11:17:41.071Z,246.80
2023-04-27T11:18:41.168Z,247.51
2023-04-27T11:19:41.034Z,246.60
2023-04-27T11:20:40.970Z,247.98
2023-04-27T11:21:41.134Z,247.33
2023-04-27T11:22:40.951Z,248.16
2023-04-27T11:23:40.957Z,248.34
2023-04-27T11:24:40.958Z,249.32
2023-04-27T11:25:40.964Z,250.26
2023-04-27T11:26:40.930Z,247.44
2023-04-27T11:27:41.106Z,247.17
2023-04-27T11:28:40.899Z,249.25
2023-04-27T11:29:40.921Z,248.24
2023-04-27T11:30:40.895Z,249.27
2023-04-27T11:31:40.964Z,249.25
2023-04-27T11:32:40.935Z,248.43
2023-04-27T11:33:40.877Z,248.75
2023-04-27T11:34:40.874Z,248.58
2023-04-27T11:35:40.838Z,249.01
2023-04-27T11:36:40.838Z,247.20
2023-04-27T11:37:40.996Z,247.00
2023-04-27T11:38:40.849Z,247.26
2023-04-27T11:39:40.830Z,248.31
2023-04-27T11:40:40.874Z,248.69
2023-04-27T11:41:40.884Z,247.62
2023-04-27T11:42:40.917Z,248.53
2023-04-27T11:43:40.975Z,247.76
2023-04-27T11:44:40.972Z,246.70
2023-04-27T11:45:40.993Z,247.32
2023-04-27T11:46:41.516Z,247.26
2023-04-27T11:47:41.117Z,248.46
2023-04-27T11:48:41.097Z,248.75
2023-04-27T11:49:41.114Z,248.68
2023-04-27T11:50:41.165Z,246.63
2023-04-27T11:51:41.204Z,247.82
2023-04-27T11:52:41.221Z,248.67
2023-04-27T11:53:41.260Z,247.21
2023-04-27T11:54:41.295Z,250.19
2023-04-27T11:55:41.330Z,249.53
2023-04-27T11:56:41.357Z,246.54
2023-04-27T11:57:41.374Z,248.66
2023-04-27T11:58:41.427Z,245.56
2023-04-27T11:59:41.461Z,248.10
2023-04-27T12:00:41.497Z,247.00
2023-04-27T12:01:41.496Z,247.36
2023-04-27T12:02:41.706Z,246.02
2023-04-27T12:03:41.801Z,247.04
2023-04-27T12:04:41.804Z,247.92
2023-04-27T12:05:41.656Z,247.75
2023-04-27T12:06:41.670Z,246.72
2023-04-27T12:07:41.691Z,245.74
2023-04-27T12:08:41.705Z,247.42
2023-04-27T12:09:41.748Z,246.21
2023-04-27T12:10:41.749Z,248.05
2023-04-27T12:11:41.793Z,248.05
2023-04-27T12:12:41.824Z,248.12
2023-04-27T12:13:41.851Z,248.40
2023-04-27T12:14:41.889Z,247.48
2023-04-27T12:15:41.931Z,249.04
2023-04-27T12:16:42.039Z,247.91
2023-04-27T12:17:41.982Z,247.99
2023-04-27T12:18:41.940Z,247.99
2023-04-27T12:19:41.917Z,248.56
2023-04-27T12:20:41.930Z,249.42
2023-04-27T12:21:41.903Z,250.39
2023-04-27T12:22:41.902Z,249.48
2023-04-27T12:23:41.879Z,248.19
2023-04-27T12:24:41.876Z,249.44
2023-04-27T12:25:41.863Z,246.47
2023-04-27T12:26:41.838Z,249.12
2023-04-27T12:27:41.838Z,249.16
2023-04-27T12:28:41.812Z,249.27
2023-04-27T12:29:41.810Z,249.20
2023-04-27T12:30:41.890Z,250.01